createdAt,value
2023-02-07T00:00:50.769Z,79.45
2023-02-07T00:03:56.486Z,78.01
2023-02-07T00:06:58.800Z,77.20
2023-02-07T00:10:01.780Z,77.34
2023-02-07T00:13:06.221Z,77.06
2023-02-07T00:16:09.567Z,78.36
2023-02-07T00:19:11.909Z,78.11
2023-02-07T00:22:14.832Z,77.96
2023-02-07T00:25:18.154Z,77.85
2023-02-07T00:28:20.912Z,78.43
2023-02-07T00:31:27.373Z,77.68
2023-02-07T00:34:31.697Z,78.69
2023-02-07T00:37:34.076Z,76.94
2023-02-07T00:40:38.670Z,77.30
2023-02-07T00:43:45.361Z,77.73
2023-02-07T00:46:48.057Z,78.01
2023-02-07T00:49:50.311Z,77.28
2023-02-07T00:52:53.460Z,76.55
2023-02-07T00:55:55.928Z,76.90
2023-02-07T00:58:59.074Z,77.34
2023-02-07T01:02:01.477Z,79.34
2023-02-07T01:05:07.892Z,79.85
2023-02-07T01:08:10.417Z,80.53
2023-02-07T01:11:16.463Z,80.83
2023-02-07T01:14:18.924Z,80.26
2023-02-07T01:17:21.647Z,79.82
2023-02-07T01:20:24.158Z,78.84
2023-02-07T01:23:26.940Z,77.67
2023-02-07T01:26:29.285Z,77.55
2023-02-07T01:29:31.958Z,78.16
2023-02-07T01:32:34.946Z,78.74
2023-02-07T01:35:39.826Z,78.78
2023-02-07T01:38:43.289Z,78.20
2023-02-07T01:41:45.905Z,76.43
2023-02-07T01:44:51.242Z,76.04
2023-02-07T01:47:55.430Z,77.28
2023-02-07T01:51:05.462Z,77.75
2023-02-07T01:54:11.231Z,76.57
2023-02-07T01:57:17.609Z,75.20
2023-02-07T02:00:20.695Z,76.00
2023-02-07T02:03:27.167Z,76.35
2023-02-07T02:06:32.026Z,76.99
2023-02-07T02:09:34.906Z,76.42
2023-02-07T02:13:05.065Z,76.22
2023-02-07T02:16:36.360Z,76.42
2023-02-07T02:19:51.237Z,76.49
2023-02-07T02:23:17.696Z,76.80
2023-02-07T02:26:43.381Z,77.69
2023-02-07T02:30:24.133Z,76.36
2023-02-07T02:33:42.261Z,77.01
2023-02-07T02:37:10.124Z,77.06
2023-02-07T02:40:15.927Z,75.99
2023-02-07T02:43:59.545Z,77.92
2023-02-07T02:47:03.461Z,77.46
2023-02-07T02:50:12.057Z,76.62
2023-02-07T02:53:16.034Z,76.87
2023-02-07T02:56:40.495Z,75.80
2023-02-07T02:59:58.688Z,76.95
2023-02-07T03:03:29.564Z,76.15
2023-02-07T03:06:41.854Z,77.37
2023-02-07T03:10:18.052Z,75.71
2023-02-07T03:13:58.122Z,76.63
2023-02-07T03:17:29.801Z,76.22
2023-02-07T03:20:46.119Z,76.95
2023-02-07T03:23:52.313Z,76.41
2023-02-07T03:26:59.339Z,77.52
2023-02-07T03:30:07.770Z,77.22
2023-02-07T03:33:13.875Z,78.76
2023-02-07T03:36:29.087Z,77.06
2023-02-07T03:39:33.322Z,76.53
2023-02-07T03:42:49.708Z,76.92
2023-02-07T03:45:52.718Z,77.41
2023-02-07T03:48:56.170Z,75.98
2023-02-07T03:51:59.359Z,75.37
2023-02-07T03:55:02.175Z,75.67
2023-02-07T03:58:07.429Z,75.34
2023-02-07T04:01:10.716Z,76.60
2023-02-07T04:04:13.376Z,75.79
2023-02-07T04:07:15.708Z,75.99
2023-02-07T04:10:18.485Z,76.55
2023-02-07T04:13:20.839Z,77.09
2023-02-07T04:16:23.690Z,77.14
2023-02-07T04:19:28.262Z,76.09
2023-02-07T04:22:32.429Z,75.54
2023-02-07T04:25:34.643Z,75.88
2023-02-07T04:28:37.873Z,76.78
2023-02-07T04:31:42.306Z,76.08
2023-02-07T04:34:45.189Z,76.24
2023-02-07T04:37:47.461Z,77.11
2023-02-07T04:40:50.580Z,76.99
2023-02-07T04:43:53.955Z,77.81
2023-02-07T04:46:57.717Z,77.17
2023-02-07T04:50:00.133Z,76.66
2023-02-07T04:53:02.891Z,76.00
2023-02-07T04:56:05.593Z,75.49
2023-02-07T04:59:08.210Z,74.92
2023-02-07T05:02:10.542Z,74.83
2023-02-07T05:05:13.248Z,74.94
2023-02-07T05:08:15.632Z,74.58
2023-02-07T05:11:19.609Z,74.24
2023-02-07T05:14:21.962Z,75.22
2023-02-07T05:17:24.651Z,74.32
2023-02-07T05:20:27.154Z,74.32
2023-02-07T05:23:29.896Z,73.62
2023-02-07T05:26:34.299Z,72.87
2023-02-07T05:29:37.206Z,73.25
2023-02-07T05:33:03.221Z,73.38
2023-02-07T05:36:11.632Z,72.91
2023-02-07T05:39:16.061Z,72.30
2023-02-07T05:42:19.232Z,72.20
2023-02-07T05:45:21.976Z,73.32
2023-02-07T05:48:24.722Z,73.61
2023-02-07T05:51:27.114Z,74.26
2023-02-07T05:54:30.093Z,76.14
2023-02-07T05:57:32.562Z,76.76
2023-02-07T06:00:35.667Z,77.86
2023-02-07T06:03:38.536Z,78.04
2023-02-07T06:06:43.061Z,77.25
2023-02-07T06:09:46.752Z,74.87
2023-02-07T06:12:49.331Z,75.34
2023-02-07T06:15:52.053Z,76.24
2023-02-07T06:18:54.457Z,75.92
2023-02-07T06:21:57.211Z,73.95
2023-02-07T06:24:59.503Z,74.08
2023-02-07T06:28:03.853Z,74.37
2023-02-07T06:31:06.369Z,75.07
2023-02-07T06:34:09.190Z,75.53
2023-02-07T06:37:12.178Z,76.68
2023-02-07T06:40:14.869Z,76.34
2023-02-07T06:43:20.381Z,77.34
2023-02-07T06:46:23.817Z,78.04
2023-02-07T06:49:26.420Z,76.69
2023-02-07T06:52:29.438Z,76.26
2023-02-07T06:55:36.115Z,75.16
2023-02-07T06:58:39.618Z,74.69
2023-02-07T07:01:43.802Z,73.25
2023-02-07T07:04:47.451Z,70.70
2023-02-07T07:07:51.638Z,68.39
2023-02-07T07:10:56.371Z,66.00
2023-02-07T07:14:02.660Z,66.69
2023-02-07T07:17:07.341Z,68.09
2023-02-07T07:20:10.493Z,67.69
2023-02-07T07:23:13.440Z,68.17
2023-02-07T07:26:16.279Z,68.05
2023-02-07T07:29:20.526Z,68.17
2023-02-07T07:32:33.680Z,68.60
2023-02-07T07:35:38.393Z,68.32
2023-02-07T07:38:44.514Z,68.44
2023-02-07T07:41:50.838Z,68.28
2023-02-07T07:44:55.959Z,68.41
2023-02-07T07:48:01.291Z,68.42
2023-02-07T07:51:05.534Z,67.91
2023-02-07T07:54:08.514Z,67.85
2023-02-07T07:57:10.956Z,67.43
2023-02-07T08:00:14.283Z,68.03
2023-02-07T08:03:17.622Z,67.80
2023-02-07T08:06:21.766Z,66.65
2023-02-07T08:09:24.262Z,66.07
2023-02-07T08:12:31.398Z,65.05
2023-02-07T08:15:34.166Z,65.46
2023-02-07T08:18:40.951Z,64.95
2023-02-07T08:22:00.597Z,63.81
2023-02-07T10:31:12.327Z,50.52
2023-02-07T10:34:28.377Z,50.13
2023-02-07T10:37:38.491Z,49.97
2023-02-07T10:41:08.732Z,49.87
2023-02-07T10:44:18.329Z,50.36
2023-02-07T10:47:21.242Z,49.14
2023-02-07T10:50:30.164Z,50.49
2023-02-07T10:54:01.644Z,48.13
2023-02-07T10:57:17.303Z,48.93
2023-02-07T11:00:26.727Z,46.23
2023-02-07T11:03:30.925Z,44.51
2023-02-07T11:06:36.539Z,46.12
2023-02-07T11:09:39.518Z,45.73
2023-02-07T11:12:47.988Z,46.52
2023-02-07T11:16:08.734Z,46.97
2023-02-07T11:19:20.438Z,47.55
2023-02-07T11:22:25.565Z,46.09
2023-02-07T11:25:36.994Z,46.12
2023-02-07T11:28:39.769Z,47.22
2023-02-07T11:31:44.822Z,45.83
2023-02-07T11:34:54.545Z,46.22
2023-02-07T11:38:05.415Z,47.47
2023-02-07T11:41:23.283Z,47.34
2023-02-07T11:44:29.835Z,46.93
2023-02-07T11:47:35.578Z,47.31
2023-02-07T11:50:43.421Z,47.23
2023-02-07T11:53:53.029Z,46.40
2023-02-07T11:57:06.426Z,47.47
2023-02-07T12:00:26.038Z,45.98
2023-02-07T12:03:42.093Z,48.27
2023-02-07T12:07:01.317Z,45.89
2023-02-07T12:10:15.960Z,46.37
2023-02-07T12:13:29.684Z,45.58
2023-02-07T12:16:41.266Z,46.16
2023-02-07T12:20:12.235Z,45.30
2023-02-07T12:23:46.547Z,45.08
2023-02-07T12:27:12.401Z,45.28
2023-02-07T12:30:30.922Z,45.00
2023-02-07T12:33:55.707Z,46.37
2023-02-07T12:37:06.192Z,46.29
2023-02-07T12:40:37.473Z,44.99
2023-02-07T12:43:48.424Z,44.27
2023-02-07T12:47:38.275Z,44.16
2023-02-07T12:51:04.900Z,45.28
2023-02-07T12:54:40.123Z,44.26
2023-02-07T12:58:04.795Z,44.38
2023-02-07T13:01:23.120Z,44.91
2023-02-07T13:04:46.784Z,44.84
2023-02-07T13:08:00.053Z,44.76
2023-02-07T13:11:20.737Z,44.28
2023-02-07T13:14:53.543Z,44.92
2023-02-07T13:18:26.205Z,45.24
2023-02-07T13:21:53.422Z,43.52
2023-02-07T13:24:56.211Z,42.63
2023-02-07T13:28:04.190Z,43.42
2023-02-07T13:31:11.462Z,43.82
2023-02-07T13:34:31.932Z,44.13
2023-02-07T13:38:20.456Z,43.93
2023-02-07T13:41:41.628Z,44.41
2023-02-07T13:44:46.851Z,45.12
2023-02-07T13:48:29.936Z,44.61
2023-02-07T13:51:52.927Z,44.65
2023-02-07T13:55:22.527Z,45.78
2023-02-07T13:59:20.931Z,44.90
2023-02-07T14:02:23.398Z,44.47
2023-02-07T14:05:32.394Z,43.70
2023-02-07T14:08:35.866Z,44.67
2023-02-07T14:11:47.410Z,45.78
2023-02-07T14:15:02.123Z,44.43
2023-02-07T14:18:45.009Z,45.31
2023-02-07T14:22:19.323Z,47.13
2023-02-07T14:25:40.386Z,46.51
2023-02-07T14:28:46.152Z,46.62
2023-02-07T14:31:50.191Z,45.59
2023-02-07T14:34:58.597Z,45.63
2023-02-07T14:38:05.800Z,45.52
2023-02-07T14:41:16.737Z,44.32
2023-02-07T14:44:32.906Z,45.48
2023-02-07T14:47:36.974Z,46.60
2023-02-07T14:50:39.935Z,46.96
2023-02-07T14:53:45.393Z,45.48
2023-02-07T14:56:51.204Z,45.72
2023-02-07T15:00:07.561Z,46.34
2023-02-07T15:03:19.013Z,46.35
2023-02-07T15:06:31.953Z,46.98
2023-02-07T15:09:35.124Z,46.81
2023-02-07T15:12:37.325Z,46.60
2023-02-07T15:15:51.310Z,47.42
2023-02-07T15:18:55.178Z,47.76
2023-02-07T15:21:58.182Z,48.03
2023-02-07T15:25:03.598Z,48.13
2023-02-07T15:28:25.358Z,47.66
2023-02-07T15:31:29.614Z,48.78
2023-02-07T15:34:35.113Z,48.13
2023-02-07T15:37:39.509Z,49.13
2023-02-07T15:40:42.615Z,48.99
2023-02-07T15:44:02.856Z,48.93
2023-02-07T15:47:07.763Z,49.28
2023-02-07T15:50:14.189Z,49.63
2023-02-07T15:53:24.139Z,50.38
2023-02-07T15:56:29.705Z,50.00
2023-02-07T15:59:33.675Z,51.62
2023-02-07T16:02:39.910Z,52.92
2023-02-07T16:05:42.698Z,53.48
2023-02-07T16:08:45.421Z,53.24
2023-02-07T16:11:48.214Z,54.49
2023-02-07T16:14:50.685Z,54.43
2023-02-07T16:17:54.086Z,55.24
2023-02-07T16:20:56.409Z,55.35
2023-02-07T16:24:08.530Z,54.76
2023-02-07T16:27:31.527Z,55.08
2023-02-07T16:30:38.235Z,55.57
2023-02-07T16:33:41.179Z,55.24
2023-02-07T16:36:44.574Z,54.68
2023-02-07T16:39:47.193Z,55.55
2023-02-07T16:42:52.836Z,55.50
2023-02-07T16:45:55.198Z,55.43
2023-02-07T16:48:58.125Z,57.08
2023-02-07T16:52:00.595Z,56.20
2023-02-07T16:55:03.377Z,57.15
2023-02-07T16:58:07.319Z,56.72
2023-02-07T17:01:18.099Z,57.90
2023-02-07T17:04:21.740Z,57.70
2023-02-07T17:07:25.263Z,56.73
2023-02-07T17:10:32.638Z,56.60
2023-02-07T17:13:35.553Z,56.54
2023-02-07T17:16:38.403Z,56.49
2023-02-07T17:19:41.320Z,57.00
2023-02-07T17:22:43.666Z,57.49
2023-02-07T17:25:47.790Z,58.47
2023-02-07T17:28:51.595Z,58.04
2023-02-07T17:31:54.373Z,58.72
2023-02-07T17:34:56.688Z,58.96
2023-02-07T17:38:00.240Z,59.26
2023-02-07T17:41:02.712Z,59.84
2023-02-07T17:44:06.237Z,60.92
2023-02-07T17:47:09.532Z,61.37
2023-02-07T17:50:22.296Z,61.40
2023-02-07T17:53:24.964Z,61.61
2023-02-07T17:56:32.300Z,61.85
2023-02-07T17:59:34.858Z,62.04
2023-02-07T18:02:37.635Z,62.02
2023-02-07T18:05:42.809Z,62.88
2023-02-07T18:08:47.136Z,62.76
2023-02-07T18:11:50.542Z,62.88
2023-02-07T18:14:53.211Z,62.62
2023-02-07T18:17:59.356Z,62.76
2023-02-07T18:21:03.806Z,63.99
2023-02-07T18:24:07.074Z,64.65
2023-02-07T18:27:09.579Z,65.25
2023-02-07T18:30:15.288Z,65.64
2023-02-07T18:33:19.454Z,66.55
2023-02-07T18:36:26.762Z,68.62
2023-02-07T18:39:29.711Z,69.18
2023-02-07T18:42:32.889Z,69.86
2023-02-07T18:45:38.108Z,70.39
2023-02-07T18:48:41.134Z,70.96
2023-02-07T18:51:44.189Z,71.22
2023-02-07T18:54:47.192Z,71.38
2023-02-07T18:57:50.307Z,72.04
2023-02-07T19:00:53.752Z,73.91
2023-02-07T19:03:58.568Z,73.91
2023-02-07T19:07:02.222Z,74.10
2023-02-07T19:10:05.781Z,74.17
2023-02-07T19:13:09.979Z,74.11
2023-02-07T19:16:18.448Z,74.07
2023-02-07T19:19:21.847Z,73.70
2023-02-07T19:22:35.226Z,73.11
2023-02-07T19:25:47.619Z,72.31
2023-02-07T19:28:52.778Z,71.67
2023-02-07T19:32:01.017Z,71.05
2023-02-07T19:35:03.389Z,70.72
2023-02-07T19:38:07.187Z,70.68
2023-02-07T19:41:10.025Z,71.17
2023-02-07T19:44:13.157Z,70.95
2023-02-07T19:47:15.743Z,70.72
2023-02-07T19:50:20.221Z,71.33
2023-02-07T19:53:22.759Z,71.02
2023-02-07T19:56:27.701Z,71.15
2023-02-07T19:59:30.472Z,70.60
2023-02-07T20:02:33.156Z,69.83
2023-02-07T20:05:35.894Z,70.00
2023-02-07T20:08:39.453Z,70.44
2023-02-07T20:11:41.985Z,71.27
2023-02-07T20:14:44.298Z,73.32
2023-02-07T20:17:47.001Z,74.15
2023-02-07T20:20:55.744Z,73.64
2023-02-07T20:24:00.981Z,72.97
2023-02-07T20:27:03.532Z,72.13
2023-02-07T20:30:07.008Z,73.19
2023-02-07T20:33:09.557Z,73.21
2023-02-07T20:36:15.285Z,74.65
2023-02-07T20:39:20.487Z,74.74
2023-02-07T20:42:23.603Z,74.96
2023-02-07T20:45:28.517Z,75.03
2023-02-07T20:48:31.032Z,74.60
2023-02-07T20:51:33.799Z,74.52
2023-02-07T20:54:36.628Z,74.34
2023-02-07T20:57:39.297Z,74.10
2023-02-07T21:00:43.371Z,73.87
2023-02-07T21:03:46.858Z,73.57
2023-02-07T21:06:50.592Z,74.43
2023-02-07T21:09:53.108Z,75.15
2023-02-07T21:12:56.017Z,76.13
2023-02-07T21:16:03.217Z,75.09
2023-02-07T21:19:06.151Z,74.67
2023-02-07T21:22:08.760Z,75.45
2023-02-07T21:25:12.575Z,76.22
2023-02-07T21:28:15.272Z,75.55
2023-02-07T21:31:22.318Z,74.81
2023-02-07T21:34:25.558Z,74.30
2023-02-07T21:37:28.645Z,73.57
2023-02-07T21:40:30.852Z,75.54
2023-02-07T21:43:33.857Z,75.19
2023-02-07T21:46:39.845Z,74.05
2023-02-07T21:49:43.733Z,75.58
2023-02-07T21:52:45.994Z,76.29
2023-02-07T21:55:49.118Z,76.09
2023-02-07T21:59:05.811Z,76.57
2023-02-07T22:02:12.961Z,76.54
2023-02-07T22:05:15.979Z,76.71
2023-02-07T22:08:18.493Z,76.55
2023-02-07T22:11:22.273Z,77.15
2023-02-07T22:14:30.053Z,76.63
2023-02-07T22:17:32.586Z,77.27
2023-02-07T22:20:35.142Z,76.79
2023-02-07T22:23:37.807Z,76.50
2023-02-07T22:26:40.521Z,76.38
2023-02-07T22:29:43.096Z,76.23
2023-02-07T22:32:45.789Z,76.77
2023-02-07T22:35:48.619Z,76.27
2023-02-07T22:38:51.244Z,76.82
2023-02-07T22:41:57.011Z,76.42
2023-02-07T22:44:59.725Z,76.97
2023-02-07T22:48:03.009Z,76.55
2023-02-07T22:51:36.276Z,76.03
2023-02-07T22:54:38.886Z,76.38
2023-02-07T22:57:41.436Z,76.89
2023-02-07T23:00:44.583Z,78.09
2023-02-07T23:03:47.416Z,78.99
2023-02-07T23:06:51.364Z,79.35
2023-02-07T23:09:54.675Z,80.37
2023-02-07T23:12:57.347Z,79.50
2023-02-07T23:16:00.130Z,78.25
2023-02-07T23:19:19.104Z,78.09
2023-02-07T23:22:21.909Z,79.61
2023-02-07T23:25:24.456Z,78.56
2023-02-07T23:28:27.255Z,78.92
2023-02-07T23:31:29.978Z,78.04
2023-02-07T23:34:32.632Z,77.05
2023-02-07T23:37:36.785Z,77.48
2023-02-07T23:40:39.429Z,78.61
2023-02-07T23:43:42.725Z,79.87
2023-02-07T23:46:44.982Z,80.92
2023-02-07T23:49:49.790Z,80.86
2023-02-07T23:52:52.694Z,81.86
2023-02-07T23:55:58.125Z,81.65
2023-02-07T23:59:00.744Z,82.03
